createdAt,value
2018-05-26T00:01:12.506Z,79.70
2018-05-26T00:03:40.664Z,79.90
2018-05-26T00:06:08.142Z,80.30
2018-05-26T00:08:35.590Z,79.80
2018-05-26T00:11:03.043Z,80.30
2018-05-26T00:13:30.482Z,80.80
2018-05-26T00:15:58.749Z,80.80
2018-05-26T00:18:26.978Z,81.00
2018-05-26T00:20:55.212Z,80.80
2018-05-26T00:23:23.422Z,81.70
2018-05-26T00:25:50.886Z,81.70
2018-05-26T00:28:18.350Z,81.30
2018-05-26T00:30:45.806Z,81.30
2018-05-26T00:33:13.251Z,81.50
2018-05-26T00:35:41.387Z,81.30
2018-05-26T00:38:09.590Z,81.40
2018-05-26T00:40:37.046Z,81.40
2018-05-26T00:43:04.502Z,82.00
2018-05-26T00:45:31.963Z,81.60
2018-05-26T00:48:00.079Z,82.20
2018-05-26T00:50:27.535Z,81.50
2018-05-26T00:52:54.990Z,81.30
2018-05-26T00:55:22.446Z,81.50
2018-05-26T00:57:49.938Z,81.00
2018-05-26T01:00:18.153Z,81.80
2018-05-26T01:02:45.610Z,81.80
2018-05-26T01:05:13.062Z,82.50
2018-05-26T01:07:40.956Z,82.50
2018-05-26T01:10:08.430Z,81.80
2018-05-26T01:12:35.910Z,82.20
2018-05-26T01:15:04.118Z,81.70
2018-05-26T01:17:31.579Z,81.40
2018-05-26T01:19:59.043Z,81.40
2018-05-26T01:22:26.494Z,81.30
2018-05-26T01:24:54.774Z,82.00
2018-05-26T01:27:22.257Z,81.80
2018-05-26T01:29:49.697Z,82.00
2018-05-26T01:32:17.164Z,82.50
2018-05-26T01:34:44.602Z,82.40
2018-05-26T01:37:12.311Z,81.10
2018-05-26T01:39:39.739Z,81.70
2018-05-26T01:42:07.206Z,82.50
2018-05-26T01:44:34.870Z,82.60
2018-05-26T01:47:02.330Z,82.00
2018-05-26T01:49:29.796Z,82.10
2018-05-26T01:51:57.242Z,82.20
2018-05-26T01:54:24.698Z,82.20
2018-05-26T01:56:53.255Z,81.70
2018-05-26T01:59:20.697Z,81.90
2018-05-26T02:01:48.168Z,81.80
2018-05-26T02:04:15.610Z,81.30
2018-05-26T02:06:43.822Z,81.90
2018-05-26T02:09:11.272Z,81.90
2018-05-26T02:11:38.751Z,82.60
2018-05-26T02:14:06.240Z,82.10
2018-05-26T02:16:33.695Z,81.20
2018-05-26T02:19:01.142Z,81.70
2018-05-26T02:21:28.610Z,82.20
2018-05-26T02:23:56.068Z,81.80
2018-05-26T02:26:23.514Z,81.70
2018-05-26T02:28:50.968Z,81.30
2018-05-26T02:31:18.415Z,82.20
2018-05-26T02:33:45.896Z,82.40
2018-05-26T02:36:13.323Z,82.70
2018-05-26T02:38:41.246Z,82.30
2018-05-26T02:41:09.441Z,81.50
2018-05-26T02:43:36.930Z,81.30
2018-05-26T02:46:04.636Z,81.80
2018-05-26T02:48:32.848Z,82.50
2018-05-26T02:51:00.302Z,82.50
2018-05-26T02:53:27.775Z,82.50
2018-05-26T02:55:55.230Z,81.90
2018-05-26T02:58:22.710Z,82.40
2018-05-26T03:00:50.181Z,82.00
2018-05-26T03:03:17.634Z,81.90
2018-05-26T03:05:50.807Z,82.40
2018-05-26T03:08:23.890Z,83.00
2018-05-26T03:10:56.893Z,83.20
2018-05-26T03:13:30.088Z,82.20
2018-05-26T03:16:04.014Z,82.40
2018-05-26T03:18:32.243Z,82.90
2018-05-26T03:20:59.686Z,82.30
2018-05-26T03:23:27.129Z,82.10
2018-05-26T03:25:54.565Z,82.40
2018-05-26T03:28:22.787Z,82.80
2018-05-26T03:30:50.235Z,82.80
2018-05-26T03:33:17.695Z,82.60
2018-05-26T03:35:45.934Z,82.20
2018-05-26T03:38:14.187Z,83.10
2018-05-26T03:40:42.486Z,83.10
2018-05-26T03:43:09.922Z,82.70
2018-05-26T03:45:37.374Z,82.40
2018-05-26T03:48:04.822Z,82.80
2018-05-26T03:50:32.281Z,83.10
2018-05-26T03:53:00.516Z,83.60
2018-05-26T04:08:55.346Z,83.30
2018-05-26T04:11:22.866Z,82.80
2018-05-26T04:13:50.251Z,82.80
2018-05-26T04:16:17.709Z,82.50
2018-05-26T04:18:45.193Z,82.70
2018-05-26T04:21:12.656Z,82.40
2018-05-26T04:23:40.102Z,82.90
2018-05-26T04:26:07.589Z,82.70
2018-05-26T04:28:35.797Z,82.70
2018-05-26T04:31:03.656Z,82.70
2018-05-26T04:33:31.090Z,83.20
2018-05-26T04:35:59.317Z,82.90
2018-05-26T04:38:26.762Z,82.90
2018-05-26T04:40:54.236Z,82.80
2018-05-26T04:43:21.677Z,82.70
2018-05-26T04:45:49.124Z,83.20
2018-05-26T04:48:16.593Z,83.50
2018-05-26T04:50:44.034Z,83.50
2018-05-26T04:53:11.486Z,82.80
2018-05-26T04:55:38.949Z,83.40
2018-05-26T04:58:06.419Z,83.00
2018-05-26T05:00:33.856Z,82.90
2018-05-26T05:03:01.306Z,83.20
2018-05-26T05:05:29.531Z,82.60
2018-05-26T05:07:57.001Z,82.50
2018-05-26T05:10:24.448Z,83.30
2018-05-26T05:12:51.913Z,83.10
2018-05-26T05:15:19.597Z,82.90
2018-05-26T05:17:47.038Z,83.10
2018-05-26T05:20:14.517Z,83.30
2018-05-26T05:22:41.961Z,83.70
2018-05-26T05:25:09.422Z,83.20
2018-05-26T05:27:36.875Z,83.40
2018-05-26T05:30:04.326Z,83.50
2018-05-26T05:32:31.813Z,83.60
2018-05-26T05:34:59.266Z,84.20
2018-05-26T05:37:26.718Z,84.60
2018-05-26T05:39:54.187Z,83.90
2018-05-26T05:42:21.618Z,83.80
2018-05-26T05:44:49.079Z,83.40
2018-05-26T05:47:16.538Z,83.20
2018-05-26T05:49:43.990Z,83.00
2018-05-26T05:52:11.431Z,82.60
2018-05-26T05:54:38.942Z,82.50
2018-05-26T05:57:07.154Z,80.90
2018-05-26T05:59:34.601Z,80.80
2018-05-26T06:02:02.887Z,78.20
2018-05-26T06:04:30.344Z,78.20
2018-05-26T06:06:58.010Z,78.10
2018-05-26T06:09:25.457Z,78.60
2018-05-26T06:11:54.592Z,79.40
2018-05-26T06:14:22.259Z,78.80
2018-05-26T06:16:49.710Z,79.10
2018-05-26T06:19:17.163Z,79.50
2018-05-26T06:21:44.601Z,79.50
2018-05-26T06:24:13.049Z,80.20
2018-05-26T06:26:40.506Z,80.30
2018-05-26T06:29:07.966Z,80.80
2018-05-26T06:31:35.422Z,80.60
2018-05-26T06:34:03.684Z,79.70
2018-05-26T06:36:31.082Z,79.70
2018-05-26T06:38:58.542Z,78.30
2018-05-26T06:41:26.006Z,77.50
2018-05-26T06:43:53.458Z,75.60
2018-05-26T06:46:21.670Z,75.10
2018-05-26T06:48:49.119Z,75.10
2018-05-26T06:51:16.580Z,71.80
2018-05-26T06:53:44.029Z,73.60
2018-05-26T06:56:11.487Z,72.30
2018-05-26T06:58:38.923Z,72.50
2018-05-26T07:01:06.391Z,73.10
2018-05-26T07:03:33.859Z,72.50
2018-05-26T07:06:01.387Z,69.10
2018-05-26T07:08:28.826Z,69.60
2018-05-26T07:10:56.279Z,69.50
2018-05-26T07:13:23.718Z,69.30
2018-05-26T07:15:51.965Z,69.70
2018-05-26T07:18:19.398Z,69.60
2018-05-26T07:20:47.623Z,67.40
2018-05-26T07:23:15.828Z,67.00
2018-05-26T07:25:43.298Z,66.60
2018-05-26T07:28:10.746Z,64.30
2018-05-26T07:30:38.190Z,64.20
2018-05-26T07:33:06.418Z,64.00
2018-05-26T07:35:33.867Z,64.00
2018-05-26T07:38:01.318Z,62.90
2018-05-26T07:40:28.767Z,63.30
2018-05-26T07:42:56.234Z,64.60
2018-05-26T07:45:23.683Z,64.60
2018-05-26T07:47:51.135Z,60.80
2018-05-26T07:50:19.417Z,63.00
2018-05-26T07:52:46.850Z,60.60
2018-05-26T07:55:14.294Z,64.60
2018-05-26T07:57:42.635Z,61.00
2018-05-26T08:00:10.228Z,60.90
2018-05-26T08:02:38.396Z,60.10
2018-05-26T08:05:05.857Z,60.00
2018-05-26T08:07:34.141Z,58.40
2018-05-26T08:10:01.577Z,57.80
2018-05-26T08:12:29.587Z,59.40
2018-05-26T08:14:57.041Z,60.10
2018-05-26T08:17:24.534Z,60.10
2018-05-26T08:19:52.654Z,60.70
2018-05-26T08:22:20.878Z,58.00
2018-05-26T08:24:48.326Z,57.40
2018-05-26T08:27:16.745Z,58.10
2018-05-26T08:29:44.365Z,58.30
2018-05-26T08:32:12.598Z,60.20
2018-05-26T08:34:40.798Z,58.10
2018-05-26T08:37:08.245Z,58.00
2018-05-26T08:39:36.476Z,57.80
2018-05-26T08:42:03.931Z,57.80
2018-05-26T08:44:31.396Z,58.30
2018-05-26T08:46:58.857Z,59.20
2018-05-26T08:49:26.315Z,56.90
2018-05-26T08:51:53.821Z,57.50
2018-05-26T08:54:21.378Z,56.40
2018-05-26T08:56:48.839Z,56.40
2018-05-26T08:59:16.333Z,56.90
2018-05-26T09:01:43.802Z,56.50
2018-05-26T09:04:11.277Z,56.30
2018-05-26T09:06:38.745Z,57.60
2018-05-26T09:09:06.265Z,56.20
2018-05-26T09:11:33.728Z,54.40
2018-05-26T09:14:02.185Z,55.70
2018-05-26T09:16:29.657Z,54.00
2018-05-26T09:18:57.104Z,55.10
2018-05-26T09:21:24.553Z,55.50
2018-05-26T09:23:52.002Z,54.40
2018-05-26T09:26:20.202Z,54.20
2018-05-26T09:28:47.639Z,54.20
2018-05-26T09:31:15.146Z,54.80
2018-05-26T09:33:42.610Z,53.70
2018-05-26T09:36:10.132Z,52.80
2018-05-26T09:38:37.628Z,53.60
2018-05-26T09:41:05.158Z,50.50
2018-05-26T09:43:32.609Z,51.20
2018-05-26T09:46:00.059Z,52.40
2018-05-26T09:48:28.105Z,49.70
2018-05-26T09:50:56.334Z,50.10
2018-05-26T09:53:23.778Z,50.10
2018-05-26T09:55:51.217Z,50.00
2018-05-26T09:58:18.706Z,48.70
2018-05-26T10:00:46.205Z,49.10
2018-05-26T10:03:14.406Z,48.90
2018-05-26T10:05:41.867Z,48.90
2018-05-26T10:08:09.305Z,48.10
2018-05-26T10:10:38.332Z,48.00
2018-05-26T10:13:05.775Z,48.00
2018-05-26T10:15:36.901Z,49.10
2018-05-26T10:18:06.384Z,51.10
2018-05-26T10:20:33.848Z,51.30
2018-05-26T10:23:02.138Z,50.80
2018-05-26T10:25:30.399Z,48.50
2018-05-26T10:27:57.831Z,49.10
2018-05-26T10:30:25.882Z,48.10
2018-05-26T10:32:54.078Z,49.20
2018-05-26T10:35:21.516Z,48.00
2018-05-26T10:37:48.970Z,48.70
2018-05-26T10:40:16.405Z,47.40
2018-05-26T10:42:43.929Z,47.30
2018-05-26T10:45:12.154Z,45.70
2018-05-26T10:47:40.804Z,45.80
2018-05-26T10:50:09.064Z,45.10
2018-05-26T10:52:37.496Z,44.70
2018-05-26T10:55:05.487Z,44.20
2018-05-26T10:57:32.929Z,44.70
2018-05-26T11:00:00.378Z,44.90
2018-05-26T11:02:28.595Z,45.80
2018-05-26T11:04:56.026Z,45.70
2018-05-26T11:07:23.474Z,48.60
2018-05-26T11:09:50.930Z,46.30
2018-05-26T11:12:18.371Z,45.10
2018-05-26T11:14:45.813Z,44.00
2018-05-26T11:17:14.829Z,46.00
2018-05-26T11:19:42.462Z,46.00
2018-05-26T11:22:09.897Z,43.00
2018-05-26T11:24:37.362Z,45.20
2018-05-26T11:27:04.881Z,47.00
2018-05-26T11:29:32.331Z,47.50
2018-05-26T11:31:59.765Z,47.00
2018-05-26T11:34:28.002Z,47.50
2018-05-26T11:36:55.590Z,47.50
2018-05-26T11:39:23.100Z,48.30
2018-05-26T11:41:50.530Z,46.00
2018-05-26T11:44:17.966Z,47.00
2018-05-26T11:46:47.458Z,43.90
2018-05-26T11:49:14.927Z,43.80
2018-05-26T11:51:42.365Z,45.70
2018-05-26T11:54:09.817Z,46.50
2018-05-26T11:56:37.257Z,43.80
2018-05-26T11:59:05.091Z,44.50
2018-05-26T12:01:32.542Z,42.30
2018-05-26T12:04:00.006Z,43.80
2018-05-26T12:06:27.450Z,44.20
2018-05-26T12:08:55.714Z,44.50
2018-05-26T12:11:23.929Z,45.10
2018-05-26T12:13:51.392Z,45.10
2018-05-26T12:16:18.830Z,44.60
2018-05-26T12:18:46.266Z,45.10
2018-05-26T12:21:15.041Z,45.60
2018-05-26T12:23:43.302Z,45.60
2018-05-26T12:26:10.755Z,44.50
2018-05-26T12:28:39.062Z,44.70
2018-05-26T12:33:41.242Z,44.60
2018-05-26T12:36:09.478Z,42.90
2018-05-26T12:38:37.713Z,42.90
2018-05-26T12:41:05.215Z,44.30
2018-05-26T12:43:32.643Z,43.00
2018-05-26T12:46:00.129Z,42.80
2018-05-26T12:48:27.579Z,40.90
2018-05-26T12:50:55.022Z,41.00
2018-05-26T12:53:22.518Z,42.20
2018-05-26T12:55:49.918Z,39.80
2018-05-26T12:58:17.358Z,38.60
2018-05-26T13:00:46.977Z,41.80
2018-05-26T13:03:15.183Z,41.20
2018-05-26T13:05:42.662Z,40.60
2018-05-26T13:08:10.119Z,38.90
2018-05-26T13:10:37.557Z,39.20
2018-05-26T13:13:05.042Z,39.30
2018-05-26T13:15:32.500Z,39.60
2018-05-26T13:17:59.958Z,39.70
2018-05-26T13:20:28.295Z,37.00
2018-05-26T13:22:55.738Z,39.80
2018-05-26T13:25:23.182Z,38.50
2018-05-26T13:27:54.312Z,39.80
2018-05-26T13:30:21.762Z,39.70
2018-05-26T13:32:49.194Z,37.90
2018-05-26T13:35:16.672Z,39.00
2018-05-26T13:37:44.075Z,39.70
2018-05-26T13:40:11.510Z,39.40
2018-05-26T13:42:39.726Z,40.00
2018-05-26T13:45:07.835Z,40.00
2018-05-26T13:47:35.305Z,37.90
2018-05-26T13:50:02.745Z,37.60
2018-05-26T13:52:30.230Z,37.40
2018-05-26T13:54:57.706Z,39.00
2018-05-26T13:57:25.112Z,38.10
2018-05-26T13:59:52.552Z,38.00
2018-05-26T14:02:20.630Z,38.20
2018-05-26T14:04:48.069Z,38.10
2018-05-26T14:07:15.521Z,37.30
2018-05-26T14:09:42.990Z,38.00
2018-05-26T14:12:10.426Z,37.40
2018-05-26T14:14:38.778Z,37.20
2018-05-26T14:17:07.391Z,39.00
2018-05-26T14:19:35.606Z,37.50
2018-05-26T14:22:03.039Z,37.40
2018-05-26T14:24:32.294Z,36.20
2018-05-26T14:27:00.114Z,36.90
2018-05-26T14:29:27.562Z,36.50
2018-05-26T14:31:55.017Z,36.70
2018-05-26T14:34:22.518Z,37.90
2018-05-26T14:36:49.961Z,37.30
2018-05-26T14:39:17.406Z,36.80
2018-05-26T14:41:44.834Z,36.80
2018-05-26T14:44:12.301Z,37.50
2018-05-26T14:46:39.764Z,38.70
2018-05-26T14:49:07.253Z,37.00
2018-05-26T14:51:34.700Z,37.60
2018-05-26T14:54:02.151Z,36.90
2018-05-26T14:56:29.581Z,36.80
2018-05-26T14:58:57.022Z,36.90
2018-05-26T15:01:25.234Z,36.90
2018-05-26T15:03:52.711Z,36.80
2018-05-26T15:06:20.146Z,36.80
2018-05-26T15:08:47.576Z,36.40
2018-05-26T15:11:15.785Z,37.80
2018-05-26T15:13:43.299Z,37.70
2018-05-26T15:16:11.518Z,35.40
2018-05-26T15:18:38.985Z,35.30
2018-05-26T15:21:06.430Z,37.20
2018-05-26T15:23:34.640Z,36.80
2018-05-26T15:26:02.098Z,36.70
2018-05-26T15:28:29.573Z,36.60
2018-05-26T15:30:57.062Z,37.00
2018-05-26T15:33:24.509Z,37.00
2018-05-26T15:35:52.735Z,36.60
2018-05-26T15:38:20.169Z,36.60
2018-05-26T15:40:47.695Z,35.50
2018-05-26T15:43:16.142Z,37.00
2018-05-26T15:45:43.584Z,37.00
2018-05-26T15:48:11.036Z,36.80
2018-05-26T15:50:38.510Z,37.70
2018-05-26T15:53:05.967Z,36.40
2018-05-26T15:55:33.395Z,37.00
2018-05-26T15:58:00.833Z,36.70
2018-05-26T16:00:28.361Z,37.20
2018-05-26T16:02:55.857Z,37.50
2018-05-26T16:05:23.290Z,38.20
2018-05-26T16:07:51.722Z,40.00
2018-05-26T16:10:19.183Z,39.40
2018-05-26T16:12:47.133Z,38.00
2018-05-26T16:15:14.638Z,39.10
2018-05-26T16:17:42.153Z,37.20
2018-05-26T16:20:09.653Z,38.50
2018-05-26T16:22:37.330Z,38.30
2018-05-26T16:25:04.770Z,39.40
2018-05-26T16:27:32.209Z,40.00
2018-05-26T16:29:59.645Z,38.20
2018-05-26T16:32:27.098Z,38.70
2018-05-26T16:34:54.574Z,39.30
2018-05-26T16:37:22.784Z,38.50
2018-05-26T16:39:50.246Z,38.50
2018-05-26T16:42:17.686Z,40.00
2018-05-26T16:44:45.135Z,39.90
2018-05-26T16:47:12.584Z,40.00
2018-05-26T16:49:40.076Z,40.80
2018-05-26T16:52:07.542Z,40.70
2018-05-26T16:54:34.978Z,39.70
2018-05-26T16:57:02.414Z,40.30
2018-05-26T16:59:29.865Z,39.00
2018-05-26T17:01:57.349Z,38.40
2018-05-26T17:04:24.831Z,38.40
2018-05-26T17:06:52.401Z,39.30
2018-05-26T17:09:20.635Z,39.40
2018-05-26T17:11:48.079Z,39.40
2018-05-26T17:14:15.542Z,40.10
2018-05-26T17:16:44.111Z,39.60
2018-05-26T17:19:11.554Z,40.20
2018-05-26T17:21:39.042Z,40.20
2018-05-26T17:24:06.493Z,40.10
2018-05-26T17:26:33.968Z,39.80
2018-05-26T17:29:01.753Z,41.30
2018-05-26T17:31:29.985Z,40.40
2018-05-26T17:33:57.439Z,40.40
2018-05-26T17:36:24.907Z,39.60
2018-05-26T17:38:53.130Z,40.80
2018-05-26T17:41:20.574Z,40.80
2018-05-26T17:43:48.034Z,41.00
2018-05-26T17:46:16.278Z,42.00
2018-05-26T17:48:43.722Z,41.90
2018-05-26T17:51:11.158Z,40.20
2018-05-26T17:53:38.606Z,39.70
2018-05-26T17:56:06.823Z,39.80
2018-05-26T17:58:34.294Z,39.80
2018-05-26T18:01:01.738Z,40.10
2018-05-26T18:03:29.542Z,40.00
2018-05-26T18:05:56.975Z,40.80
2018-05-26T18:08:24.485Z,41.30
2018-05-26T18:10:51.899Z,41.60
2018-05-26T18:13:20.121Z,41.60
2018-05-26T18:15:47.558Z,42.40
2018-05-26T18:18:15.995Z,42.40
2018-05-26T18:20:43.432Z,42.30
2018-05-26T18:23:12.056Z,43.00
2018-05-26T18:25:39.502Z,43.00
2018-05-26T18:28:06.952Z,43.00
2018-05-26T18:30:34.398Z,41.50
2018-05-26T18:33:01.853Z,42.10
2018-05-26T18:35:29.306Z,42.60
2018-05-26T18:37:56.738Z,43.30
2018-05-26T18:40:24.938Z,43.20
2018-05-26T18:42:52.374Z,43.20
2018-05-26T18:45:19.810Z,42.70
2018-05-26T18:47:48.027Z,43.90
2018-05-26T18:50:15.461Z,43.80
2018-05-26T18:52:43.701Z,43.10
2018-05-26T18:55:11.141Z,44.50
2018-05-26T18:57:38.578Z,44.30
2018-05-26T19:00:06.910Z,43.90
2018-05-26T19:02:34.353Z,44.50
2018-05-26T19:05:01.798Z,44.00
2018-05-26T19:07:29.237Z,44.00
2018-05-26T19:09:56.674Z,43.90
2018-05-26T19:12:24.109Z,43.60
2018-05-26T19:14:52.316Z,43.90
2018-05-26T19:17:19.777Z,43.80
2018-05-26T19:19:47.225Z,44.40
2018-05-26T19:22:14.649Z,45.00
2018-05-26T19:24:42.857Z,45.00
2018-05-26T19:27:10.291Z,45.00
2018-05-26T19:29:38.496Z,45.00
2018-05-26T19:32:07.590Z,45.00
2018-05-26T19:34:35.370Z,45.10
2018-05-26T19:37:02.850Z,44.60
2018-05-26T19:39:31.410Z,45.60
2018-05-26T19:42:01.302Z,44.80
2018-05-26T19:44:28.730Z,45.50
2018-05-26T19:46:56.946Z,46.50
2018-05-26T19:49:24.407Z,46.60
2018-05-26T19:51:51.887Z,47.10
2018-05-26T19:54:19.563Z,47.00
2018-05-26T19:56:46.994Z,48.10
2018-05-26T19:59:14.459Z,46.00
2018-05-26T20:01:42.494Z,45.90
2018-05-26T20:04:10.714Z,46.30
2018-05-26T20:06:38.166Z,47.70
2018-05-26T20:09:05.606Z,46.80
2018-05-26T20:11:34.050Z,46.80
2018-05-26T20:14:02.255Z,47.30
2018-05-26T20:16:29.690Z,47.20
2018-05-26T20:18:57.910Z,48.00
2018-05-26T20:21:25.346Z,48.00
2018-05-26T20:23:53.555Z,48.20
2018-05-26T20:26:20.993Z,48.20
2018-05-26T20:28:48.449Z,48.60
2018-05-26T20:31:15.930Z,49.00
2018-05-26T20:33:43.326Z,48.10
2018-05-26T20:36:11.205Z,48.90
2018-05-26T20:38:39.577Z,48.80
2018-05-26T20:41:07.768Z,49.90
2018-05-26T20:43:35.263Z,49.80
2018-05-26T20:46:02.711Z,49.00
2018-05-26T20:48:30.147Z,49.40
2018-05-26T20:50:57.617Z,49.60
2018-05-26T20:53:25.056Z,49.80
2018-05-26T20:55:52.531Z,50.20
2018-05-26T20:58:19.979Z,50.20
2018-05-26T21:00:47.435Z,50.50
2018-05-26T21:03:14.893Z,50.40
2018-05-26T21:05:42.331Z,50.30
2018-05-26T21:08:09.765Z,50.50
2018-05-26T21:10:37.290Z,50.50
2018-05-26T21:13:04.909Z,51.70
2018-05-26T21:15:33.095Z,51.70
2018-05-26T21:18:00.721Z,51.70
2018-05-26T21:20:28.405Z,51.80
2018-05-26T21:22:55.903Z,51.60
2018-05-26T21:25:23.362Z,51.60
2018-05-26T21:27:50.848Z,51.80
2018-05-26T21:30:18.334Z,52.00
2018-05-26T21:32:46.557Z,52.00
2018-05-26T21:35:14.144Z,51.90
2018-05-26T21:37:41.646Z,52.70
2018-05-26T21:40:09.115Z,52.70
2018-05-26T21:42:36.542Z,52.90
2018-05-26T21:45:04.753Z,53.20
2018-05-26T21:47:32.206Z,53.20
2018-05-26T21:49:59.680Z,53.20
2018-05-26T21:52:27.137Z,55.00
2018-05-26T21:54:54.561Z,53.70
2018-05-26T21:57:22.000Z,53.60
2018-05-26T21:59:50.211Z,53.90
2018-05-26T22:02:17.646Z,53.90
2018-05-26T22:04:45.093Z,54.30
2018-05-26T22:07:13.289Z,54.70
2018-05-26T22:09:41.985Z,54.60
2018-05-26T22:12:09.427Z,54.30
2018-05-26T22:14:36.876Z,54.40
2018-05-26T22:17:05.128Z,55.00
2018-05-26T22:19:32.539Z,54.90
2018-05-26T22:22:00.066Z,54.70
2018-05-26T22:24:28.289Z,54.60
2018-05-26T22:26:55.778Z,54.50
2018-05-26T22:29:24.743Z,56.10
2018-05-26T22:31:52.197Z,55.80
2018-05-26T22:34:19.641Z,55.60
2018-05-26T22:36:47.086Z,55.20
2018-05-26T22:39:15.438Z,56.00
2018-05-26T22:41:43.648Z,56.20
2018-05-26T22:44:11.102Z,56.20
2018-05-26T22:46:38.537Z,56.80
2018-05-26T22:49:05.978Z,56.60
2018-05-26T22:51:34.716Z,57.30
2018-05-26T22:54:02.191Z,56.90
2018-05-26T22:56:29.625Z,56.50
2018-05-26T22:58:57.070Z,56.80
2018-05-26T23:01:24.514Z,56.40
2018-05-26T23:03:52.811Z,56.20
2018-05-26T23:06:20.249Z,56.40
2018-05-26T23:08:48.446Z,57.00
2018-05-26T23:11:15.963Z,57.00
2018-05-26T23:13:44.181Z,56.90
2018-05-26T23:16:13.301Z,56.80
2018-05-26T23:18:40.730Z,57.20
2018-05-26T23:21:08.166Z,57.90
2018-05-26T23:23:36.366Z,57.20
2018-05-26T23:26:04.005Z,57.20
2018-05-26T23:28:31.455Z,57.80
2018-05-26T23:31:01.480Z,57.30
2018-05-26T23:33:29.682Z,57.60
2018-05-26T23:35:57.887Z,57.70
2018-05-26T23:38:25.331Z,57.70
2018-05-26T23:40:52.767Z,57.70
2018-05-26T23:43:20.219Z,57.60
2018-05-26T23:45:47.646Z,57.80
2018-05-26T23:48:16.765Z,58.20
2018-05-26T23:50:44.211Z,58.20
2018-05-26T23:53:11.717Z,58.50
2018-05-26T23:55:39.182Z,58.80
2018-05-26T23:58:06.606Z,58.80
